createdAt,value
2018-02-22T00:02:14.023Z,16.37
2018-02-22T00:04:43.296Z,16.63
2018-02-22T00:07:11.907Z,16.33
2018-02-22T00:09:40.557Z,17.43
2018-02-22T00:12:11.715Z,16.73
2018-02-22T00:14:40.430Z,17.37
2018-02-22T00:17:08.269Z,15.93
2018-02-22T00:19:36.832Z,18.37
2018-02-22T00:22:05.256Z,15.27
2018-02-22T00:24:35.137Z,16.30
2018-02-22T00:27:03.666Z,15.33
2018-02-22T00:29:32.464Z,15.80
2018-02-22T00:32:00.356Z,15.97
2018-02-22T00:34:29.486Z,15.80
2018-02-22T00:36:59.065Z,15.80
2018-02-22T00:39:28.372Z,15.60
2018-02-22T00:41:57.133Z,15.27
2018-02-22T00:44:24.842Z,16.80
2018-02-22T00:46:52.526Z,15.80
2018-02-22T00:49:21.442Z,16.50
2018-02-22T00:51:51.435Z,15.70
2018-02-22T00:54:20.909Z,15.87
2018-02-22T00:56:49.370Z,16.53
2018-02-22T00:59:18.706Z,16.60
2018-02-22T01:01:48.843Z,16.30
2018-02-22T01:04:18.405Z,15.20
2018-02-22T01:06:47.399Z,15.50
2018-02-22T01:09:15.718Z,15.30
2018-02-22T01:11:46.139Z,14.97
2018-02-22T01:14:16.877Z,15.30
2018-02-22T01:16:46.694Z,14.00
2018-02-22T01:19:15.681Z,15.13
2018-02-22T01:21:43.355Z,14.73
2018-02-22T01:24:11.053Z,15.63
2018-02-22T01:26:39.315Z,14.90
2018-02-22T01:29:07.011Z,15.67
2018-02-22T01:31:35.648Z,14.80
2018-02-22T01:34:07.387Z,14.37
2018-02-22T01:36:36.573Z,14.70
2018-02-22T01:39:05.521Z,14.37
2018-02-22T01:41:33.198Z,14.73
2018-02-22T01:44:02.156Z,15.03
2018-02-22T01:46:30.771Z,15.57
2018-02-22T01:49:00.191Z,14.30
2018-02-22T01:51:28.643Z,15.13
2018-02-22T01:53:56.323Z,15.00
2018-02-22T01:56:24.382Z,15.27
2018-02-22T01:58:53.530Z,15.00
2018-02-22T02:01:21.190Z,15.97
2018-02-22T02:03:50.288Z,14.77
2018-02-22T02:06:18.900Z,14.20
2018-02-22T02:08:48.071Z,15.20
2018-02-22T02:11:17.202Z,14.70
2018-02-22T02:13:46.184Z,14.73
2018-02-22T02:16:15.102Z,15.57
2018-02-22T02:18:43.391Z,15.33
2018-02-22T02:21:12.008Z,14.57
2018-02-22T02:23:41.468Z,14.40
2018-02-22T02:26:11.126Z,14.93
2018-02-22T02:31:14.177Z,15.23
2018-02-22T02:33:41.918Z,14.70
2018-02-22T02:36:11.932Z,15.67
2018-02-22T02:38:40.229Z,15.10
2018-02-22T02:41:07.919Z,14.67
2018-02-22T02:43:36.432Z,16.07
2018-02-22T02:46:04.680Z,14.97
2018-02-22T02:48:33.325Z,16.40
2018-02-22T02:51:01.002Z,15.03
2018-02-22T02:53:28.672Z,14.93
2018-02-22T02:55:56.358Z,14.90
2018-02-22T02:58:25.373Z,15.80
2018-02-22T03:00:53.054Z,14.90
2018-02-22T03:03:21.284Z,16.63
2018-02-22T03:05:49.309Z,15.73
2018-02-22T03:08:18.346Z,16.77
2018-02-22T03:10:47.281Z,16.47
2018-02-22T03:13:15.704Z,17.13
2018-02-22T03:15:43.582Z,15.73
2018-02-22T03:18:11.258Z,15.63
2018-02-22T03:20:38.945Z,16.13
2018-02-22T03:23:07.701Z,15.90
2018-02-22T03:25:35.859Z,16.10
2018-02-22T03:28:05.715Z,17.13
2018-02-22T03:30:34.433Z,15.43
2018-02-22T03:33:02.415Z,16.63
2018-02-22T03:35:34.601Z,16.33
2018-02-22T03:38:03.467Z,16.50
2018-02-22T03:40:31.218Z,16.37
2018-02-22T03:42:58.919Z,18.17
2018-02-22T03:45:26.811Z,17.03
2018-02-22T03:47:55.415Z,16.37
2018-02-22T03:50:23.999Z,16.90
2018-02-22T03:52:52.051Z,17.80
2018-02-22T03:55:20.534Z,17.07
2018-02-22T03:57:48.954Z,16.90
2018-02-22T04:00:16.649Z,17.90
2018-02-22T04:02:45.376Z,17.20
2018-02-22T04:05:14.793Z,16.67
2018-02-22T04:07:43.232Z,18.13
2018-02-22T04:10:12.180Z,17.83
2018-02-22T04:12:40.054Z,17.20
2018-02-22T04:15:07.996Z,18.80
2018-02-22T04:17:37.259Z,17.77
2018-02-22T04:20:06.300Z,17.87
2018-02-22T04:22:34.765Z,17.17
2018-02-22T04:25:04.084Z,17.37
2018-02-22T04:27:32.777Z,17.47
2018-02-22T04:30:00.764Z,17.73
2018-02-22T04:32:29.252Z,17.87
2018-02-22T04:34:57.178Z,17.80
2018-02-22T04:37:24.851Z,18.47
2018-02-22T04:39:52.531Z,19.03
2018-02-22T04:42:20.181Z,19.40
2018-02-22T04:44:47.853Z,17.57
2018-02-22T04:47:15.578Z,17.57
2018-02-22T04:49:43.248Z,19.17
2018-02-22T04:52:10.927Z,17.37
2018-02-22T04:54:38.837Z,18.27
2018-02-22T04:57:06.519Z,18.23
2018-02-22T04:59:35.068Z,18.10
2018-02-22T05:02:02.746Z,19.70
2018-02-22T05:04:30.423Z,18.43
2018-02-22T05:06:58.096Z,18.83
2018-02-22T05:09:25.778Z,18.07
2018-02-22T05:11:53.448Z,19.17
2018-02-22T05:14:21.916Z,19.33
2018-02-22T05:16:49.577Z,17.73
2018-02-22T05:19:17.251Z,18.77
2018-02-22T05:21:44.925Z,18.47
2018-02-22T05:24:14.748Z,17.97
2018-02-22T05:26:43.187Z,17.80
2018-02-22T05:29:10.820Z,19.20
2018-02-22T05:31:38.416Z,19.27
2018-02-22T05:34:06.094Z,17.77
2018-02-22T05:36:33.756Z,17.63
2018-02-22T05:39:01.419Z,18.90
2018-02-22T05:41:29.024Z,18.77
2018-02-22T05:43:56.715Z,19.30
2018-02-22T05:46:25.612Z,18.37
2018-02-22T05:48:53.271Z,19.40
2018-02-22T05:51:20.942Z,19.13
2018-02-22T05:53:48.603Z,19.30
2018-02-22T05:56:16.284Z,19.87
2018-02-22T05:58:43.978Z,19.70
2018-02-22T06:01:12.423Z,19.47
2018-02-22T06:03:40.041Z,20.17
2018-02-22T06:06:07.712Z,19.73
2018-02-22T06:08:35.403Z,19.90
2018-02-22T06:11:03.098Z,20.13
2018-02-22T06:13:31.532Z,20.03
2018-02-22T06:15:59.428Z,21.43
2018-02-22T06:18:27.116Z,21.60
2018-02-22T06:20:55.548Z,21.80
2018-02-22T06:23:23.225Z,21.73
2018-02-22T06:25:50.863Z,22.57
2018-02-22T06:28:18.539Z,21.37
2018-02-22T06:30:46.247Z,20.67
2018-02-22T06:33:14.719Z,19.87
2018-02-22T06:35:42.383Z,21.60
2018-02-22T06:38:10.048Z,21.43
2018-02-22T06:40:37.739Z,21.60
2018-02-22T06:43:05.400Z,21.13
2018-02-22T06:45:35.041Z,20.13
2018-02-22T06:48:02.711Z,21.60
2018-02-22T06:50:31.139Z,22.20
2018-02-22T06:52:59.616Z,27.87
2018-02-22T06:55:27.286Z,25.33
2018-02-22T06:57:55.764Z,22.07
2018-02-22T07:00:23.417Z,20.73
2018-02-22T07:02:51.095Z,19.07
2018-02-22T07:05:19.532Z,19.47
2018-02-22T07:07:47.195Z,18.27
2018-02-22T07:10:14.856Z,18.20
2018-02-22T07:12:42.544Z,17.70
2018-02-22T07:15:10.390Z,18.37
2018-02-22T07:17:38.061Z,17.17
2018-02-22T07:20:05.761Z,17.77
2018-02-22T07:22:34.200Z,20.13
2018-02-22T07:25:01.887Z,18.63
2018-02-22T07:27:29.612Z,19.57
2018-02-22T07:29:57.331Z,20.30
2018-02-22T07:32:24.988Z,18.30
2018-02-22T07:34:53.425Z,19.17
2018-02-22T07:37:21.104Z,19.43
2018-02-22T07:39:48.794Z,18.90
2018-02-22T07:42:16.454Z,18.93
2018-02-22T07:44:44.216Z,18.73
2018-02-22T07:47:11.877Z,18.60
2018-02-22T07:49:39.526Z,19.10
2018-02-22T07:52:07.192Z,16.83
2018-02-22T07:54:34.876Z,16.80
2018-02-22T07:57:03.359Z,16.00
2018-02-22T07:59:31.084Z,16.83
2018-02-22T08:01:58.783Z,20.30
2018-02-22T08:04:26.461Z,31.13
2018-02-22T08:06:54.900Z,18.93
2018-02-22T08:09:22.672Z,19.73
2018-02-22T08:11:50.335Z,25.17
2018-02-22T08:14:18.975Z,21.47
2018-02-22T08:16:46.615Z,19.43
2018-02-22T08:19:15.000Z,20.53
2018-02-22T08:21:43.488Z,22.70
2018-02-22T08:24:11.160Z,19.13
2018-02-22T08:26:38.919Z,19.47
2018-02-22T08:29:07.365Z,18.90
2018-02-22T08:31:35.037Z,27.03
2018-02-22T08:34:02.987Z,22.10
2018-02-22T08:36:30.878Z,22.50
2018-02-22T08:38:58.536Z,23.37
2018-02-22T08:41:26.688Z,20.40
2018-02-22T08:43:54.370Z,18.83
2018-02-22T08:46:22.007Z,19.83
2018-02-22T08:48:49.704Z,19.00
2018-02-22T08:51:17.385Z,19.70
2018-02-22T08:53:45.059Z,19.40
2018-02-22T08:56:12.745Z,19.73
2018-02-22T08:58:40.408Z,22.83
2018-02-22T09:01:08.062Z,20.00
2018-02-22T09:03:35.722Z,21.47
2018-02-22T09:06:03.531Z,21.13
2018-02-22T09:08:31.212Z,21.63
2018-02-22T09:10:58.874Z,21.30
2018-02-22T09:13:26.510Z,20.97
2018-02-22T09:15:54.206Z,20.97
2018-02-22T09:18:21.892Z,19.80
2018-02-22T09:20:49.575Z,21.60
2018-02-22T09:23:17.270Z,20.93
2018-02-22T09:25:44.945Z,20.70
2018-02-22T09:28:12.624Z,21.73
2018-02-22T09:30:40.279Z,20.67
2018-02-22T09:33:07.953Z,23.67
2018-02-22T09:35:37.596Z,22.07
2018-02-22T09:38:05.277Z,23.83
2018-02-22T09:40:32.925Z,22.90
2018-02-22T09:43:00.615Z,24.50
2018-02-22T09:45:28.276Z,23.43
2018-02-22T09:47:55.952Z,26.07
2018-02-22T09:50:23.612Z,23.70
2018-02-22T09:52:51.267Z,24.27
2018-02-22T09:55:18.933Z,27.03
2018-02-22T09:57:46.610Z,26.53
2018-02-22T10:00:14.259Z,27.10
2018-02-22T10:02:41.928Z,26.93
2018-02-22T10:05:10.837Z,25.37
2018-02-22T10:07:38.504Z,27.77
2018-02-22T10:10:06.186Z,28.30
2018-02-22T10:12:33.840Z,28.37
2018-02-22T10:15:02.191Z,28.40
2018-02-22T10:17:29.851Z,28.43
2018-02-22T10:19:57.522Z,27.67
2018-02-22T10:22:25.205Z,28.73
2018-02-22T10:24:52.873Z,28.60
2018-02-22T10:27:20.630Z,26.93
2018-02-22T10:29:48.282Z,27.17
2018-02-22T10:32:15.952Z,27.50
2018-02-22T10:34:43.658Z,27.27
2018-02-22T10:37:11.328Z,26.20
2018-02-22T10:39:39.004Z,26.43
2018-02-22T10:42:06.664Z,24.77
2018-02-22T10:44:34.328Z,23.33
2018-02-22T10:47:02.019Z,24.30
2018-02-22T10:49:29.688Z,24.80
2018-02-22T10:51:57.366Z,24.93
2018-02-22T10:54:25.024Z,25.50
2018-02-22T10:56:52.691Z,23.00
2018-02-22T10:59:20.348Z,21.93
2018-02-22T11:01:53.690Z,23.17
2018-02-22T11:04:21.350Z,23.27
2018-02-22T11:06:48.963Z,24.17
2018-02-22T11:09:16.634Z,23.00
2018-02-22T11:11:44.292Z,23.73
2018-02-22T11:14:11.952Z,28.70
2018-02-22T11:16:39.603Z,37.87
2018-02-22T11:19:07.285Z,24.60
2018-02-22T11:21:34.887Z,23.50
2018-02-22T11:24:02.548Z,23.53
2018-02-22T11:26:30.226Z,25.93
2018-02-22T11:28:57.900Z,24.00
2018-02-22T11:31:25.577Z,25.07
2018-02-22T11:33:53.242Z,24.20
2018-02-22T11:36:20.904Z,23.33
2018-02-22T11:38:48.579Z,23.93
2018-02-22T11:41:16.249Z,25.33
2018-02-22T11:43:43.921Z,25.63
2018-02-22T11:46:11.634Z,23.00
2018-02-22T11:48:39.309Z,24.63
2018-02-22T11:51:06.978Z,23.80
2018-02-22T11:53:34.654Z,21.80
2018-02-22T11:56:02.323Z,21.30
2018-02-22T11:58:29.992Z,22.80
2018-02-22T12:00:57.670Z,22.20
2018-02-22T12:03:25.338Z,21.50
2018-02-22T12:05:53.778Z,20.30
2018-02-22T12:08:21.460Z,19.73
2018-02-22T12:10:49.110Z,19.50
2018-02-22T12:13:16.769Z,19.47
2018-02-22T12:15:45.457Z,18.80
2018-02-22T12:18:13.129Z,19.07
2018-02-22T12:20:40.805Z,20.17
2018-02-22T12:23:08.474Z,20.07
2018-02-22T12:25:36.135Z,19.00
2018-02-22T12:28:03.797Z,19.03
2018-02-22T12:30:31.454Z,20.23
2018-02-22T12:32:59.128Z,23.63
2018-02-22T12:35:26.779Z,17.57
2018-02-22T12:37:54.422Z,18.60
2018-02-22T12:40:22.094Z,18.57
2018-02-22T12:42:49.726Z,20.47
2018-02-22T12:45:18.628Z,16.53
2018-02-22T12:47:46.310Z,17.00
2018-02-22T12:50:13.964Z,17.63
2018-02-22T12:52:41.601Z,18.43
2018-02-22T12:55:09.311Z,18.23
2018-02-22T12:57:36.998Z,16.77
2018-02-22T13:00:05.436Z,17.73
2018-02-22T13:02:33.081Z,16.17
2018-02-22T13:05:00.760Z,18.10
2018-02-22T13:07:28.462Z,17.73
2018-02-22T13:09:56.071Z,18.57
2018-02-22T13:12:23.750Z,16.00
2018-02-22T13:14:51.481Z,20.10
2018-02-22T13:17:19.164Z,17.03
2018-02-22T13:19:47.716Z,17.67
2018-02-22T13:22:15.354Z,17.67
2018-02-22T13:24:43.013Z,16.47
2018-02-22T13:27:10.690Z,16.63
2018-02-22T13:29:38.367Z,14.73
2018-02-22T13:32:06.813Z,16.50
2018-02-22T13:34:36.234Z,15.90
2018-02-22T13:37:15.485Z,16.17
2018-02-22T13:39:43.921Z,15.97
2018-02-22T13:42:11.630Z,15.17
2018-02-22T13:44:53.112Z,14.60
2018-02-22T13:47:20.778Z,15.23
2018-02-22T13:50:00.246Z,15.60
2018-02-22T13:52:27.987Z,14.83
2018-02-22T13:54:55.658Z,15.40
2018-02-22T13:57:24.082Z,16.23
2018-02-22T13:59:51.747Z,15.33
2018-02-22T14:02:25.095Z,17.10
2018-02-22T14:04:53.578Z,16.93
2018-02-22T14:07:21.224Z,18.00
2018-02-22T14:09:48.902Z,17.57
2018-02-22T14:12:16.563Z,15.87
2018-02-22T14:14:45.203Z,15.17
2018-02-22T14:17:12.823Z,15.83
2018-02-22T14:19:40.467Z,15.23
2018-02-22T14:22:08.129Z,15.80
2018-02-22T14:24:36.577Z,15.53
2018-02-22T14:27:04.231Z,14.83
2018-02-22T14:29:31.912Z,15.43
2018-02-22T14:31:59.557Z,14.17
2018-02-22T14:34:27.266Z,14.40
2018-02-22T14:36:55.675Z,12.77
2018-02-22T14:39:23.355Z,13.03
2018-02-22T14:41:51.024Z,13.13
2018-02-22T14:44:19.928Z,13.60
2018-02-22T14:46:47.769Z,13.83
2018-02-22T14:49:15.432Z,14.33
2018-02-22T14:51:43.117Z,14.37
2018-02-22T14:54:10.782Z,14.97
2018-02-22T14:56:38.453Z,15.03
2018-02-22T14:59:06.143Z,14.57
2018-02-22T15:01:34.588Z,14.47
2018-02-22T15:04:02.242Z,15.63
2018-02-22T15:06:29.910Z,15.13
2018-02-22T15:08:57.590Z,14.33
2018-02-22T15:11:25.282Z,13.03
2018-02-22T15:13:53.710Z,15.03
2018-02-22T15:16:21.398Z,14.97
2018-02-22T15:18:49.077Z,15.63
2018-02-22T15:21:16.753Z,15.17
2018-02-22T15:23:45.212Z,15.60
2018-02-22T15:26:12.885Z,14.17
2018-02-22T15:28:40.578Z,14.60
2018-02-22T15:31:09.020Z,12.73
2018-02-22T15:33:36.707Z,14.63
2018-02-22T15:36:06.410Z,15.37
2018-02-22T15:38:34.119Z,13.23
2018-02-22T15:41:01.793Z,14.13
2018-02-22T15:43:29.442Z,13.67
2018-02-22T15:45:57.120Z,14.60
2018-02-22T15:48:24.808Z,17.57
2018-02-22T15:50:52.479Z,17.30
2018-02-22T15:53:20.150Z,15.93
2018-02-22T15:55:47.849Z,13.60
2018-02-22T15:58:15.518Z,13.93
2018-02-22T16:00:43.114Z,14.87
2018-02-22T16:03:10.770Z,13.60
2018-02-22T16:05:38.650Z,13.30
2018-02-22T16:08:06.309Z,13.47
2018-02-22T16:10:33.973Z,13.43
2018-02-22T16:13:01.652Z,14.20
2018-02-22T16:15:29.329Z,13.00
2018-02-22T16:17:57.775Z,13.20
2018-02-22T16:20:25.431Z,13.07
2018-02-22T16:22:53.060Z,12.80
2018-02-22T16:25:20.712Z,11.63
2018-02-22T16:27:49.177Z,12.17
2018-02-22T16:30:16.852Z,11.23
2018-02-22T16:32:45.291Z,13.03
2018-02-22T16:35:13.035Z,11.87
2018-02-22T16:37:40.695Z,12.67
2018-02-22T16:40:08.324Z,12.43
2018-02-22T16:42:35.987Z,12.17
2018-02-22T16:45:04.431Z,12.90
2018-02-22T16:47:32.111Z,11.90
2018-02-22T16:49:59.775Z,11.73
2018-02-22T16:52:27.459Z,12.50
2018-02-22T16:54:55.108Z,11.80
2018-02-22T16:57:22.766Z,12.07
2018-02-22T16:59:50.441Z,11.70
2018-02-22T17:02:18.132Z,12.37
2018-02-22T17:04:45.948Z,12.20
2018-02-22T17:07:13.634Z,12.50
2018-02-22T17:09:41.275Z,14.23
2018-02-22T17:12:08.997Z,13.90
2018-02-22T17:14:36.645Z,15.33
2018-02-22T17:17:05.089Z,14.97
2018-02-22T17:19:32.760Z,14.43
2018-02-22T17:22:00.428Z,14.57
2018-02-22T17:24:28.115Z,13.47
2018-02-22T17:27:01.269Z,12.97
2018-02-22T17:29:34.559Z,12.30
2018-02-22T17:32:07.719Z,11.50
2018-02-22T17:34:35.401Z,10.87
2018-02-22T17:37:04.695Z,10.70
2018-02-22T17:39:34.846Z,10.73
2018-02-22T17:42:02.523Z,10.80
2018-02-22T17:44:31.089Z,10.90
2018-02-22T17:46:58.718Z,10.50
2018-02-22T17:49:26.396Z,10.30
2018-02-22T17:51:54.051Z,10.70
2018-02-22T17:54:21.734Z,10.37
2018-02-22T17:56:49.636Z,11.33
2018-02-22T17:59:17.346Z,9.67
2018-02-22T18:01:45.034Z,10.40
2018-02-22T18:04:12.730Z,11.00
2018-02-22T18:06:40.419Z,10.60
2018-02-22T18:09:08.045Z,10.47
2018-02-22T18:11:35.753Z,10.47
2018-02-22T18:14:03.399Z,9.47
2018-02-22T18:16:31.064Z,9.33
2018-02-22T18:18:59.503Z,10.03
2018-02-22T18:21:27.168Z,9.67
2018-02-22T18:23:54.830Z,9.93
2018-02-22T18:26:22.501Z,8.87
2018-02-22T18:28:50.194Z,8.47
2018-02-22T18:31:18.636Z,8.90
2018-02-22T18:33:46.286Z,9.10
2018-02-22T18:36:14.170Z,7.93
2018-02-22T18:38:47.471Z,8.43
2018-02-22T18:41:16.902Z,8.03
2018-02-22T18:43:44.607Z,7.50
2018-02-22T18:46:12.284Z,8.07
2018-02-22T18:48:39.941Z,7.90
2018-02-22T18:51:07.592Z,7.70
2018-02-22T18:53:35.249Z,8.13
2018-02-22T18:56:03.006Z,7.60
2018-02-22T18:58:30.649Z,7.73
2018-02-22T19:00:58.248Z,7.63
2018-02-22T19:03:25.885Z,8.33
2018-02-22T19:05:53.485Z,7.67
2018-02-22T19:08:21.088Z,7.73
2018-02-22T19:10:48.703Z,7.17
2018-02-22T19:13:16.279Z,7.67
2018-02-22T19:15:43.935Z,7.80
2018-02-22T19:18:11.618Z,7.60
2018-02-22T19:20:39.305Z,7.70
2018-02-22T19:23:06.948Z,8.20
2018-02-22T19:25:34.701Z,8.10
2018-02-22T19:28:02.317Z,8.40
2018-02-22T19:30:29.967Z,9.10
2018-02-22T19:32:57.629Z,9.13
2018-02-22T19:35:25.326Z,8.80
2018-02-22T19:37:52.999Z,8.93
2018-02-22T19:40:20.660Z,9.10
2018-02-22T19:42:48.255Z,9.17
2018-02-22T19:45:15.928Z,8.80
2018-02-22T19:47:43.585Z,9.67
2018-02-22T19:50:12.035Z,8.43
2018-02-22T19:52:39.725Z,9.50
2018-02-22T19:55:07.543Z,9.00
2018-02-22T19:57:35.231Z,9.50
2018-02-22T20:00:02.946Z,10.77
2018-02-22T20:02:30.553Z,10.23
2018-02-22T20:04:58.232Z,8.87
2018-02-22T20:07:25.912Z,10.00
2018-02-22T20:09:54.331Z,8.83
2018-02-22T20:12:22.009Z,9.97
2018-02-22T20:14:49.615Z,10.43
2018-02-22T20:17:17.269Z,9.73
2018-02-22T20:19:44.939Z,9.90
2018-02-22T20:22:12.599Z,10.20
2018-02-22T20:24:40.447Z,10.33
2018-02-22T20:27:08.110Z,10.40
2018-02-22T20:29:35.707Z,9.73
2018-02-22T20:32:03.360Z,11.17
2018-02-22T20:34:30.947Z,10.27
2018-02-22T20:36:58.576Z,10.23
2018-02-22T20:39:26.176Z,10.90
2018-02-22T20:41:53.812Z,10.17
2018-02-22T20:44:22.179Z,10.07
2018-02-22T20:46:49.873Z,10.60
2018-02-22T20:49:17.517Z,11.80
2018-02-22T20:51:45.246Z,11.00
2018-02-22T20:54:13.027Z,10.83
2018-02-22T20:56:40.671Z,10.70
2018-02-22T20:59:08.341Z,12.27
2018-02-22T21:01:35.998Z,12.40
2018-02-22T21:04:04.301Z,12.20
2018-02-22T21:06:31.961Z,12.10
2018-02-22T21:08:59.632Z,12.17
2018-02-22T21:11:27.296Z,12.87
2018-02-22T21:13:55.006Z,13.93
2018-02-22T21:16:22.925Z,13.13
2018-02-22T21:18:50.598Z,14.27
2018-02-22T21:21:19.049Z,13.03
2018-02-22T21:23:46.730Z,14.00
2018-02-22T21:26:14.395Z,12.63
2018-02-22T21:28:42.057Z,12.50
2018-02-22T21:31:09.705Z,13.13
2018-02-22T21:33:37.379Z,13.47
2018-02-22T21:36:05.051Z,13.07
2018-02-22T21:38:32.706Z,12.97
2018-02-22T21:41:00.306Z,13.47
2018-02-22T21:43:27.896Z,13.67
2018-02-22T21:45:56.619Z,13.17
2018-02-22T21:48:24.225Z,14.00
2018-02-22T21:50:52.024Z,14.27
2018-02-22T21:53:19.611Z,14.43
2018-02-22T21:55:47.283Z,14.67
2018-02-22T21:58:14.950Z,16.03
2018-02-22T22:00:42.628Z,15.77
2018-02-22T22:03:11.058Z,16.27
2018-02-22T22:05:38.736Z,17.20
2018-02-22T22:08:06.421Z,18.83
2018-02-22T22:10:34.144Z,16.70
2018-02-22T22:13:01.771Z,16.07
2018-02-22T22:15:29.570Z,17.10
2018-02-22T22:17:57.222Z,16.50
2018-02-22T22:20:26.223Z,17.40
2018-02-22T22:22:53.828Z,17.17
2018-02-22T22:25:21.516Z,18.67
2018-02-22T22:27:49.110Z,17.50
2018-02-22T22:30:16.752Z,18.00
2018-02-22T22:32:44.423Z,19.27
2018-02-22T22:35:12.121Z,19.43
2018-02-22T22:37:39.774Z,19.73
2018-02-22T22:40:07.460Z,18.97
2018-02-22T22:42:35.133Z,18.77
2018-02-22T22:45:03.978Z,17.93
2018-02-22T22:47:31.570Z,18.47
2018-02-22T22:49:59.186Z,19.37
2018-02-22T22:52:26.776Z,19.03
2018-02-22T22:54:54.420Z,20.13
2018-02-22T22:57:22.190Z,18.47
2018-02-22T22:59:49.867Z,19.33
2018-02-22T23:02:17.545Z,18.03
2018-02-22T23:04:45.195Z,19.03
2018-02-22T23:07:12.865Z,19.47
2018-02-22T23:09:40.556Z,19.80
2018-02-22T23:12:08.244Z,19.20
2018-02-22T23:14:36.843Z,19.53
2018-02-22T23:17:04.522Z,19.40
2018-02-22T23:19:32.155Z,20.03
2018-02-22T23:21:59.829Z,19.37
2018-02-22T23:24:27.529Z,20.33
2018-02-22T23:26:55.217Z,21.43
2018-02-22T23:29:22.878Z,19.93
2018-02-22T23:31:50.511Z,20.13
2018-02-22T23:34:18.247Z,19.93
2018-02-22T23:36:45.921Z,20.13
2018-02-22T23:39:13.644Z,20.97
2018-02-22T23:41:43.190Z,20.23
2018-02-22T23:44:10.909Z,19.40
2018-02-22T23:46:39.317Z,19.63
2018-02-22T23:49:06.917Z,20.87
2018-02-22T23:51:34.521Z,19.93
2018-02-22T23:54:03.060Z,19.40
2018-02-22T23:56:30.798Z,19.80
2018-02-22T23:58:58.476Z,21.13
